11 augustus 2022

Tijd Code Weer Temp. Zicht Plafond Wind METAR/SPECI
9:00 a.m.
V
68 °F 20 mi - 110° 110° 4 kt METAR CYVR 111600Z 11004KT 070V170 20SM FEW060 FEW160 20/16 A3011 RMK SC1AC1 SC TR AC TR SLP200 DENSITY ALT 400FT
8:00 a.m.
V
64 °F 20 mi - 100° 100° 7 kt METAR CYVR 111500Z 10007KT 20SM FEW060 FEW160 18/16 A3012 RMK SC1AC1 AC TR SLP201 DENSITY ALT 200FT
7:00 a.m.
V
63 °F 20 mi - 100° 100° 5 kt METAR CYVR 111400Z 10005KT 20SM FEW057 SCT160 17/16 A3012 RMK SC2AC1 SLP202
6:00 a.m.
V
59 °F 20 mi - 150° 150° 5 kt METAR CYVR 111300Z 15005KT 20SM FEW060 FEW160 15/15 A3012 RMK SC1AC1 SLP201
5:00 a.m.
V
61 °F 20 mi - 120° 120° 5 kt METAR CYVR 111200Z 12005KT 20SM FEW060 16/16 A3011 RMK SC1 SLP198
4:00 a.m.
V
63 °F 20 mi 6.000 ft 100° 100° 6 kt METAR CYVR 111100Z 10006KT 20SM BKN060 17/16 A3011 RMK SC5 SLP200 DENSITY ALT 100FT
3:00 a.m.
V
63 °F 20 mi 6.000 ft 140° 140° 7 kt METAR CYVR 111000Z 14007KT 20SM BKN060 17/16 A3012 RMK SC7 SLP202 DENSITY ALT 100FT
2:00 a.m.
V
64 °F 20 mi 3.100 ft 130° 130° 7 kt METAR CYVR 110900Z 13007KT 20SM BKN031 OVC064 18/16 A3013 RMK SC6SC2 SLP205 DENSITY ALT 200FT
1:00 a.m.
V
66 °F 20 mi 4.900 ft 110° 110° 10 kt METAR CYVR 110800Z 11010KT 20SM OVC049 19/16 A3012 RMK SC8 SLP203 DENSITY ALT 300FT
12:00 a.m.
V
68 °F 20 mi 4.200 ft 100° 100° 12 kt METAR CYVR 110700Z 10012KT 20SM OVC042 20/16 A3012 RMK SC8 SLP201 DENSITY ALT 400FT

10 augustus 2022

Tijd Code Weer Temp. Zicht Plafond Wind METAR/SPECI
11:00 p.m.
V
68 °F 20 mi 3.500 ft 100° 100° 13 kt METAR CYVR 110600Z 10013KT 20SM OVC035 20/16 A3011 RMK SC8 SLP200 DENSITY ALT 400FT
10:00 p.m.
V
66 °F 20 mi 3.000 ft 100° 100° 11 kt METAR CYVR 110500Z 10011KT 20SM BKN030 OVC051 19/17 A3010 RMK SC7SC1 SLP196 DENSITY ALT 300FT
9:00 p.m.
V
66 °F 15 mi 3.500 ft 100° 100° 12 kt METAR CYVR 110400Z 10012KT 15SM FEW017 BKN035 OVC100 19/17 A3009 RMK SC1SC6AC1 TCU EMBD SLP193 DENSITY ALT 400FT
8:00 p.m.
V
68 °F 15 mi 5.600 ft 090° 090° 12 kt METAR CYVR 110300Z 09012KT 15SM FEW020 BKN056 BKN100 20/17 A3008 RMK SC1SC5AC1 TCU EMBD SLP187 DENSITY ALT 400FT
5:00 a.m.
V
64 °F 20 mi - 120° 120° 3 kt METAR CYVR 101200Z 12003KT 20SM SCT140 18/17 A2990 RMK AC4 SLP126 DENSITY ALT 400FT
4:00 a.m.
V
64 °F 20 mi - 090° 090° 5 kt METAR CYVR 101100Z 09005KT 20SM FEW150 18/17 A2990 RMK AC2 SLP126 DENSITY ALT 500FT
3:00 a.m.
V
66 °F 20 mi 15.000 ft 110° 110° 6 kt METAR CYVR 101000Z 11006KT 20SM BKN150 19/17 A2990 RMK AC5 SLP126 DENSITY ALT 500FT
2:00 a.m.
V
64 °F 20 mi - 110° 110° 7 kt METAR CYVR 100900Z 11007KT 20SM FEW140 18/17 A2990 RMK AC2 SLP126 DENSITY ALT 400FT
1:00 a.m.
V
66 °F 20 mi - 100° 100° 8 kt METAR CYVR 100800Z 10008KT 20SM FEW150 19/17 A2990 RMK AC1 SLP126 DENSITY ALT 500FT
12:00 a.m.
V
66 °F 20 mi - 090° 090° 7 kt METAR CYVR 100700Z 09007KT 20SM FEW130 19/17 A2989 RMK AC2 SLP125 DENSITY ALT 500FT

9 augustus 2022

Tijd Code Weer Temp. Zicht Plafond Wind METAR/SPECI
11:00 p.m.
V
66 °F 20 mi - 100° 100° 7 kt METAR CYVR 100600Z 10007KT 20SM FEW160 19/17 A2989 RMK AC1 SLP123 DENSITY ALT 600FT
10:00 p.m.
V
68 °F 20 mi - 100° 100° 9 kt METAR CYVR 100500Z 10009KT 20SM FEW160 20/18 A2987 RMK AC1 SLP117 DENSITY ALT 700FT
9:00 p.m.
V
70 °F 25 mi - Var Var 2 kt METAR CYVR 100400Z VRB02KT 25SM FEW160 21/19 A2987 RMK AC1 SLP116 DENSITY ALT 800FT
8:00 p.m.
V
70 °F 25 mi - 210° 210° 4 kt METAR CYVR 100300Z 21004KT 180V250 25SM FEW160 21/20 A2986 RMK AC1 SLP113 DENSITY ALT 800FT
7:00 p.m.
V
72 °F 25 mi - 250° 250° 4 kt METAR CYVR 100200Z 25004KT 25SM FEW160 22/20 A2985 RMK AC1 SLP112 DENSITY ALT 900FT
6:00 p.m.
V
75 °F 30 mi - 260° 260° 5 kt METAR CYVR 100100Z 26005KT 30SM FEW180 FEW230 24/18 A2987 RMK AC1CI1 AC TR CI TR SLP117 DENSITY ALT 1100FT
5:00 p.m.
V
75 °F 30 mi - 260° 260° 5 kt METAR CYVR 100000Z 26005KT 30SM FEW160 FEW190 FEW210 SCT230 24/19 A2987 RMK AC1AC1CI1CI2 AC TR CI TR SLP119 DENSITY ALT 1100FT
4:00 p.m.
V
75 °F 30 mi - 270° 270° 6 kt METAR CYVR 092300Z 27006KT 30SM FEW160 FEW180 SCT230 SCT240 24/19 A2989 RMK AC1AC1CI3CS1 AC TR CS TR SLP124 DENSITY ALT 1100FT
3:00 p.m.
V
73 °F 30 mi 23.000 ft 240° 240° 6 kt METAR CYVR 092200Z 24006KT 30SM FEW180 BKN230 23/19 A2991 RMK AC1CS4 SLP130 DENSITY ALT 1000FT
2:00 p.m.
V
75 °F 30 mi - 230° 230° 5 kt METAR CYVR 092100Z 23005KT 210V300 30SM FEW170 FEW180 FEW210 FEW240 24/18 A2991 RMK AC1AC1CI2CI1 AC TR AC TR CI TR SLP132 DENSITY ALT 1100FT
1:00 p.m.
V
72 °F 30 mi - 250° 250° 7 kt METAR CYVR 092000Z 25007KT 30SM FEW150 FEW190 FEW210 FEW240 22/18 A2994 RMK AC1AC1CI1CI1 AC TR CI TR SLP140 DENSITY ALT 900FT
12:00 p.m.
V
73 °F 30 mi - 310° 310° 7 kt METAR CYVR 091900Z 31007KT 30SM FEW150 SCT180 SCT190 SCT210 23/19 A2993 RMK AC1AC2AC1CI1 AC TR SLP139 DENSITY ALT 900FT
11:00 a.m.
V
72 °F 30 mi 21.000 ft 250° 250° 5 kt METAR CYVR 091800Z 25005KT 190V290 30SM FEW150 SCT180 BKN210 22/19 A2995 RMK AC2AC2CI1 SLP144 DENSITY ALT 900FT
10:00 a.m.
V
70 °F 30 mi 15.000 ft 300° 300° 5 kt METAR CYVR 091700Z 30005KT 160V330 30SM FEW060 BKN150 BKN240 21/19 A2995 RMK SC1AC5CI1 SC TR CI TR SLP143 DENSITY ALT 800FT
9:00 a.m.
V
70 °F 30 mi - Var Var 2 kt METAR CYVR 091600Z VRB02KT 30SM FEW060 FEW150 FEW180 21/18 A2995 RMK SC1AC1AC1 SC TR AC TR SLP146 DENSITY ALT 700FT
8:00 a.m.
V
68 °F 30 mi - 350° 350° 4 kt METAR CYVR 091500Z 35004KT 30SM FEW150 20/19 A2996 RMK AC1 AC TR SLP147 DENSITY ALT 500FT
Oudere gegevens

Met cookies volgen wij en derde partijen jouw internetgedrag binnen onze site. Als je verdergaat gaan we ervan uit dat je dit goedvindt. Meer info